sensor_id;sensor_type;location;lat;lon;timestamp;temperature;humidity
52203;DHT22;38173;52.850;6.970;2023-12-22T00:01:21;3.30;99.90
52203;DHT22;38173;52.850;6.970;2023-12-22T00:03:46;3.30;99.90
52203;DHT22;38173;52.850;6.970;2023-12-22T00:06:12;3.20;99.90
52203;DHT22;38173;52.850;6.970;2023-12-22T00:08:38;3.20;99.90
52203;DHT22;38173;52.850;6.970;2023-12-22T00:11:04;3.20;99.90
52203;DHT22;38173;52.850;6.970;2023-12-22T00:13:30;3.20;99.90
52203;DHT22;38173;52.850;6.970;2023-12-22T00:15:59;3.20;99.90
52203;DHT22;38173;52.850;6.970;2023-12-22T00:18:26;3.20;99.90
52203;DHT22;38173;52.850;6.970;2023-12-22T00:20:51;3.30;99.90
52203;DHT22;38173;52.850;6.970;2023-12-22T00:23:17;3.30;99.90
52203;DHT22;38173;52.850;6.970;2023-12-22T00:25:43;3.50;99.90
52203;DHT22;38173;52.850;6.970;2023-12-22T00:28:09;3.70;99.90
52203;DHT22;38173;52.850;6.970;2023-12-22T00:30:34;3.80;99.90
52203;DHT22;38173;52.850;6.970;2023-12-22T00:33:00;4.00;99.90
52203;DHT22;38173;52.850;6.970;2023-12-22T00:35:26;4.00;99.90
52203;DHT22;38173;52.850;6.970;2023-12-22T00:37:51;4.10;99.90
52203;DHT22;38173;52.850;6.970;2023-12-22T00:40:18;4.10;99.90
52203;DHT22;38173;52.850;6.970;2023-12-22T00:42:44;4.20;99.90
52203;DHT22;38173;52.850;6.970;2023-12-22T00:45:09;4.20;99.90
52203;DHT22;38173;52.850;6.970;2023-12-22T00:47:36;4.20;99.90
52203;DHT22;38173;52.850;6.970;2023-12-22T00:50:02;4.20;99.90
52203;DHT22;38173;52.850;6.970;2023-12-22T00:52:27;4.20;99.90
52203;DHT22;38173;52.850;6.970;2023-12-22T00:54:54;4.20;99.90
52203;DHT22;38173;52.850;6.970;2023-12-22T00:57:20;4.20;99.90
52203;DHT22;38173;52.850;6.970;2023-12-22T00:59:46;4.20;99.90
52203;DHT22;38173;52.850;6.970;2023-12-22T01:02:17;4.20;99.90
52203;DHT22;38173;52.850;6.970;2023-12-22T01:04:43;4.10;99.90
52203;DHT22;38173;52.850;6.970;2023-12-22T01:07:09;3.80;99.90
52203;DHT22;38173;52.850;6.970;2023-12-22T01:09:35;3.80;99.90
52203;DHT22;38173;52.850;6.970;2023-12-22T01:12:03;3.80;99.90
52203;DHT22;38173;52.850;6.970;2023-12-22T01:14:29;3.90;99.90
52203;DHT22;38173;52.850;6.970;2023-12-22T01:16:55;3.80;99.90
52203;DHT22;38173;52.850;6.970;2023-12-22T01:19:21;3.80;99.90
52203;DHT22;38173;52.850;6.970;2023-12-22T01:21:46;3.80;99.90
52203;DHT22;38173;52.850;6.970;2023-12-22T01:24:12;3.80;99.90
52203;DHT22;38173;52.850;6.970;2023-12-22T01:26:38;3.80;99.90
52203;DHT22;38173;52.850;6.970;2023-12-22T01:29:03;3.80;99.90
52203;DHT22;38173;52.850;6.970;2023-12-22T01:31:29;3.80;99.90
52203;DHT22;38173;52.850;6.970;2023-12-22T01:33:54;3.90;99.90
52203;DHT22;38173;52.850;6.970;2023-12-22T01:36:20;3.80;99.90
52203;DHT22;38173;52.850;6.970;2023-12-22T01:38:46;3.90;99.90
52203;DHT22;38173;52.850;6.970;2023-12-22T01:41:11;3.80;99.90
52203;DHT22;38173;52.850;6.970;2023-12-22T01:43:37;3.80;99.90
52203;DHT22;38173;52.850;6.970;2023-12-22T01:46:03;3.90;99.90
52203;DHT22;38173;52.850;6.970;2023-12-22T01:48:30;4.00;99.90
52203;DHT22;38173;52.850;6.970;2023-12-22T01:50:58;4.00;99.90
52203;DHT22;38173;52.850;6.970;2023-12-22T01:53:25;4.10;99.90
52203;DHT22;38173;52.850;6.970;2023-12-22T01:55:53;4.10;99.90
52203;DHT22;38173;52.850;6.970;2023-12-22T01:58:20;4.10;99.90
52203;DHT22;38173;52.850;6.970;2023-12-22T02:00:47;4.10;99.90
52203;DHT22;38173;52.850;6.970;2023-12-22T02:03:14;4.10;99.90
52203;DHT22;38173;52.850;6.970;2023-12-22T02:05:44;4.10;99.90
52203;DHT22;38173;52.850;6.970;2023-12-22T02:08:14;4.10;99.90
52203;DHT22;38173;52.850;6.970;2023-12-22T02:10:42;4.20;99.90
52203;DHT22;38173;52.850;6.970;2023-12-22T02:13:08;4.30;99.90
52203;DHT22;38173;52.850;6.970;2023-12-22T02:15:34;4.30;99.90
52203;DHT22;38173;52.850;6.970;2023-12-22T02:18:14;4.30;99.90
52203;DHT22;38173;52.850;6.970;2023-12-22T02:20:42;4.30;99.90
52203;DHT22;38173;52.850;6.970;2023-12-22T02:23:09;4.30;99.90
52203;DHT22;38173;52.850;6.970;2023-12-22T02:25:35;4.30;99.90
52203;DHT22;38173;52.850;6.970;2023-12-22T02:28:07;4.30;99.90
52203;DHT22;38173;52.850;6.970;2023-12-22T02:30:56;4.40;99.90
52203;DHT22;38173;52.850;6.970;2023-12-22T02:33:27;4.50;99.90
52203;DHT22;38173;52.850;6.970;2023-12-22T02:35:59;4.60;99.90
52203;DHT22;38173;52.850;6.970;2023-12-22T02:38:28;4.70;99.90
52203;DHT22;38173;52.850;6.970;2023-12-22T02:40:55;4.80;99.90
52203;DHT22;38173;52.850;6.970;2023-12-22T02:43:21;4.80;99.90
52203;DHT22;38173;52.850;6.970;2023-12-22T02:45:50;4.80;99.90
52203;DHT22;38173;52.850;6.970;2023-12-22T02:48:16;4.80;99.90
52203;DHT22;38173;52.850;6.970;2023-12-22T02:50:44;4.70;99.90
52203;DHT22;38173;52.850;6.970;2023-12-22T02:53:10;4.70;99.90
52203;DHT22;38173;52.850;6.970;2023-12-22T02:55:36;4.60;99.90
52203;DHT22;38173;52.850;6.970;2023-12-22T02:58:02;4.50;99.90
52203;DHT22;38173;52.850;6.970;2023-12-22T03:00:27;4.50;99.90
52203;DHT22;38173;52.850;6.970;2023-12-22T03:02:54;4.50;99.90
52203;DHT22;38173;52.850;6.970;2023-12-22T03:05:20;4.50;99.90
52203;DHT22;38173;52.850;6.970;2023-12-22T03:07:45;4.40;99.90
52203;DHT22;38173;52.850;6.970;2023-12-22T03:10:11;4.40;99.90
52203;DHT22;38173;52.850;6.970;2023-12-22T03:12:36;4.30;99.90
52203;DHT22;38173;52.850;6.970;2023-12-22T03:15:02;4.30;99.90
52203;DHT22;38173;52.850;6.970;2023-12-22T03:17:28;4.30;99.90
52203;DHT22;38173;52.850;6.970;2023-12-22T03:19:54;4.30;99.90
52203;DHT22;38173;52.850;6.970;2023-12-22T03:22:20;4.40;99.90
52203;DHT22;38173;52.850;6.970;2023-12-22T03:24:45;4.40;99.90
52203;DHT22;38173;52.850;6.970;2023-12-22T03:27:11;4.40;99.90
52203;DHT22;38173;52.850;6.970;2023-12-22T03:29:42;4.40;99.90
52203;DHT22;38173;52.850;6.970;2023-12-22T03:32:08;4.50;99.90
52203;DHT22;38173;52.850;6.970;2023-12-22T03:34:34;4.60;99.90
52203;DHT22;38173;52.850;6.970;2023-12-22T03:37:00;4.60;99.90
52203;DHT22;38173;52.850;6.970;2023-12-22T03:39:25;4.60;99.90
52203;DHT22;38173;52.850;6.970;2023-12-22T03:41:52;4.70;99.90
52203;DHT22;38173;52.850;6.970;2023-12-22T03:44:18;4.70;99.90
52203;DHT22;38173;52.850;6.970;2023-12-22T03:46:43;4.80;99.90
52203;DHT22;38173;52.850;6.970;2023-12-22T03:49:09;4.80;99.90
52203;DHT22;38173;52.850;6.970;2023-12-22T03:51:35;4.80;99.90
52203;DHT22;38173;52.850;6.970;2023-12-22T03:54:00;4.90;99.90
52203;DHT22;38173;52.850;6.970;2023-12-22T03:56:26;4.90;99.90
52203;DHT22;38173;52.850;6.970;2023-12-22T03:58:52;5.00;99.90
52203;DHT22;38173;52.850;6.970;2023-12-22T04:01:18;5.10;99.90
52203;DHT22;38173;52.850;6.970;2023-12-22T04:03:43;5.10;99.90
52203;DHT22;38173;52.850;6.970;2023-12-22T04:06:09;5.10;99.90
52203;DHT22;38173;52.850;6.970;2023-12-22T04:08:35;5.10;99.90
52203;DHT22;38173;52.850;6.970;2023-12-22T04:11:00;5.10;99.90
52203;DHT22;38173;52.850;6.970;2023-12-22T04:13:26;5.00;99.90
52203;DHT22;38173;52.850;6.970;2023-12-22T04:15:51;4.80;99.90
52203;DHT22;38173;52.850;6.970;2023-12-22T04:18:17;4.70;99.90
52203;DHT22;38173;52.850;6.970;2023-12-22T04:20:43;4.60;99.90
52203;DHT22;38173;52.850;6.970;2023-12-22T04:23:08;4.50;99.90
52203;DHT22;38173;52.850;6.970;2023-12-22T04:25:34;4.40;99.90
52203;DHT22;38173;52.850;6.970;2023-12-22T04:28:00;4.40;99.90
52203;DHT22;38173;52.850;6.970;2023-12-22T04:30:25;4.30;99.90
52203;DHT22;38173;52.850;6.970;2023-12-22T04:32:53;4.20;99.90
52203;DHT22;38173;52.850;6.970;2023-12-22T04:35:18;4.20;99.90
52203;DHT22;38173;52.850;6.970;2023-12-22T04:37:44;4.10;99.90
52203;DHT22;38173;52.850;6.970;2023-12-22T04:40:11;4.10;99.90
52203;DHT22;38173;52.850;6.970;2023-12-22T04:42:37;4.10;99.90
52203;DHT22;38173;52.850;6.970;2023-12-22T04:45:03;4.10;99.90
52203;DHT22;38173;52.850;6.970;2023-12-22T04:47:29;4.10;99.90
52203;DHT22;38173;52.850;6.970;2023-12-22T04:49:55;4.20;99.90
52203;DHT22;38173;52.850;6.970;2023-12-22T04:52:20;4.20;99.90
52203;DHT22;38173;52.850;6.970;2023-12-22T04:54:48;4.30;99.90
52203;DHT22;38173;52.850;6.970;2023-12-22T04:57:14;4.40;99.90
52203;DHT22;38173;52.850;6.970;2023-12-22T04:59:39;4.60;99.90
52203;DHT22;38173;52.850;6.970;2023-12-22T05:02:05;4.70;99.90
52203;DHT22;38173;52.850;6.970;2023-12-22T05:04:31;4.80;99.90
52203;DHT22;38173;52.850;6.970;2023-12-22T05:06:57;4.80;99.90
52203;DHT22;38173;52.850;6.970;2023-12-22T05:09:23;4.80;99.90
52203;DHT22;38173;52.850;6.970;2023-12-22T05:11:50;4.90;99.90
52203;DHT22;38173;52.850;6.970;2023-12-22T05:14:16;5.00;99.90
52203;DHT22;38173;52.850;6.970;2023-12-22T05:16:42;5.10;99.90
52203;DHT22;38173;52.850;6.970;2023-12-22T05:19:07;5.20;99.90
52203;DHT22;38173;52.850;6.970;2023-12-22T05:21:33;5.30;99.90
52203;DHT22;38173;52.850;6.970;2023-12-22T05:23:59;5.40;99.90
52203;DHT22;38173;52.850;6.970;2023-12-22T05:26:24;5.40;99.90
52203;DHT22;38173;52.850;6.970;2023-12-22T05:28:53;5.40;99.90
52203;DHT22;38173;52.850;6.970;2023-12-22T05:31:19;5.40;99.90
52203;DHT22;38173;52.850;6.970;2023-12-22T05:33:44;5.50;99.90
52203;DHT22;38173;52.850;6.970;2023-12-22T05:36:10;5.50;99.90
52203;DHT22;38173;52.850;6.970;2023-12-22T05:38:39;5.50;99.90
52203;DHT22;38173;52.850;6.970;2023-12-22T05:41:05;5.50;99.90
52203;DHT22;38173;52.850;6.970;2023-12-22T05:43:34;5.50;99.90
52203;DHT22;38173;52.850;6.970;2023-12-22T05:46:00;5.50;99.90
52203;DHT22;38173;52.850;6.970;2023-12-22T05:48:26;5.60;99.90
52203;DHT22;38173;52.850;6.970;2023-12-22T05:50:53;5.60;99.90
52203;DHT22;38173;52.850;6.970;2023-12-22T05:53:19;5.70;99.90
52203;DHT22;38173;52.850;6.970;2023-12-22T05:55:44;5.70;99.90
52203;DHT22;38173;52.850;6.970;2023-12-22T05:58:10;5.80;99.90
52203;DHT22;38173;52.850;6.970;2023-12-22T06:00:36;5.70;99.90
52203;DHT22;38173;52.850;6.970;2023-12-22T06:03:01;5.70;99.90
52203;DHT22;38173;52.850;6.970;2023-12-22T06:05:27;5.70;99.90
52203;DHT22;38173;52.850;6.970;2023-12-22T06:07:53;5.80;99.90
52203;DHT22;38173;52.850;6.970;2023-12-22T06:10:18;5.80;99.90
52203;DHT22;38173;52.850;6.970;2023-12-22T06:12:44;5.80;99.90
52203;DHT22;38173;52.850;6.970;2023-12-22T06:15:10;5.80;99.90
52203;DHT22;38173;52.850;6.970;2023-12-22T06:17:36;5.80;99.90
52203;DHT22;38173;52.850;6.970;2023-12-22T06:20:01;5.80;99.90
52203;DHT22;38173;52.850;6.970;2023-12-22T06:22:27;5.80;99.90
52203;DHT22;38173;52.850;6.970;2023-12-22T06:24:53;5.80;99.90
52203;DHT22;38173;52.850;6.970;2023-12-22T06:27:18;5.80;99.90
52203;DHT22;38173;52.850;6.970;2023-12-22T06:29:44;5.80;99.90
52203;DHT22;38173;52.850;6.970;2023-12-22T06:32:10;5.90;99.90
52203;DHT22;38173;52.850;6.970;2023-12-22T06:34:35;5.90;99.90
52203;DHT22;38173;52.850;6.970;2023-12-22T06:37:01;5.90;99.90
52203;DHT22;38173;52.850;6.970;2023-12-22T06:39:26;5.90;99.90
52203;DHT22;38173;52.850;6.970;2023-12-22T06:41:52;5.90;99.90
52203;DHT22;38173;52.850;6.970;2023-12-22T06:44:17;5.80;99.90
52203;DHT22;38173;52.850;6.970;2023-12-22T06:46:43;5.80;99.90
52203;DHT22;38173;52.850;6.970;2023-12-22T06:49:09;5.90;99.90
52203;DHT22;38173;52.850;6.970;2023-12-22T06:51:34;5.80;99.90
52203;DHT22;38173;52.850;6.970;2023-12-22T06:54:02;5.90;99.90
52203;DHT22;38173;52.850;6.970;2023-12-22T06:56:30;5.90;99.90
52203;DHT22;38173;52.850;6.970;2023-12-22T06:58:59;5.90;99.90
52203;DHT22;38173;52.850;6.970;2023-12-22T07:01:31;5.90;99.90
52203;DHT22;38173;52.850;6.970;2023-12-22T07:03:58;5.90;99.90
52203;DHT22;38173;52.850;6.970;2023-12-22T07:06:31;5.80;99.90
52203;DHT22;38173;52.850;6.970;2023-12-22T07:09:27;5.80;99.90
52203;DHT22;38173;52.850;6.970;2023-12-22T07:11:49;5.80;99.90
52203;DHT22;38173;52.850;6.970;2023-12-22T07:14:16;5.90;99.90
52203;DHT22;38173;52.850;6.970;2023-12-22T07:16:42;5.80;99.90
52203;DHT22;38173;52.850;6.970;2023-12-22T07:19:08;5.80;99.90
52203;DHT22;38173;52.850;6.970;2023-12-22T07:21:34;5.80;99.90
52203;DHT22;38173;52.850;6.970;2023-12-22T07:24:00;5.90;99.90
52203;DHT22;38173;52.850;6.970;2023-12-22T07:26:26;5.80;99.90
52203;DHT22;38173;52.850;6.970;2023-12-22T07:28:53;5.80;99.90
52203;DHT22;38173;52.850;6.970;2023-12-22T07:31:19;5.70;99.90
52203;DHT22;38173;52.850;6.970;2023-12-22T07:33:45;5.70;99.90
52203;DHT22;38173;52.850;6.970;2023-12-22T07:36:11;5.70;99.90
52203;DHT22;38173;52.850;6.970;2023-12-22T07:38:38;5.70;99.90
52203;DHT22;38173;52.850;6.970;2023-12-22T07:41:05;5.70;99.90
52203;DHT22;38173;52.850;6.970;2023-12-22T07:43:31;5.70;99.90
52203;DHT22;38173;52.850;6.970;2023-12-22T07:45:56;5.80;99.90
52203;DHT22;38173;52.850;6.970;2023-12-22T07:48:22;5.70;99.90
52203;DHT22;38173;52.850;6.970;2023-12-22T07:50:49;5.80;99.90
52203;DHT22;38173;52.850;6.970;2023-12-22T07:53:15;5.80;99.90
52203;DHT22;38173;52.850;6.970;2023-12-22T07:55:41;5.80;99.90
52203;DHT22;38173;52.850;6.970;2023-12-22T07:58:10;5.80;99.90
52203;DHT22;38173;52.850;6.970;2023-12-22T08:00:38;5.80;99.90
52203;DHT22;38173;52.850;6.970;2023-12-22T08:03:04;5.80;99.90
52203;DHT22;38173;52.850;6.970;2023-12-22T08:05:30;5.80;99.90
52203;DHT22;38173;52.850;6.970;2023-12-22T08:07:56;5.80;99.90
52203;DHT22;38173;52.850;6.970;2023-12-22T08:10:21;5.80;99.90
52203;DHT22;38173;52.850;6.970;2023-12-22T08:12:47;5.80;99.90
52203;DHT22;38173;52.850;6.970;2023-12-22T08:15:13;5.70;99.90
52203;DHT22;38173;52.850;6.970;2023-12-22T08:17:49;5.70;99.90
52203;DHT22;38173;52.850;6.970;2023-12-22T08:20:18;5.70;99.90
52203;DHT22;38173;52.850;6.970;2023-12-22T08:22:46;5.60;99.90
52203;DHT22;38173;52.850;6.970;2023-12-22T08:25:12;5.70;99.90
52203;DHT22;38173;52.850;6.970;2023-12-22T08:27:37;5.70;99.90
52203;DHT22;38173;52.850;6.970;2023-12-22T08:30:03;5.70;99.90
52203;DHT22;38173;52.850;6.970;2023-12-22T08:32:29;5.70;99.90
52203;DHT22;38173;52.850;6.970;2023-12-22T08:34:55;5.80;99.90
52203;DHT22;38173;52.850;6.970;2023-12-22T08:37:20;5.70;99.90
52203;DHT22;38173;52.850;6.970;2023-12-22T08:39:46;5.80;99.90
52203;DHT22;38173;52.850;6.970;2023-12-22T08:42:12;5.80;99.90
52203;DHT22;38173;52.850;6.970;2023-12-22T08:44:38;5.90;99.90
52203;DHT22;38173;52.850;6.970;2023-12-22T08:47:04;5.90;99.90
52203;DHT22;38173;52.850;6.970;2023-12-22T08:49:30;5.90;99.90
52203;DHT22;38173;52.850;6.970;2023-12-22T08:51:56;6.00;99.90
52203;DHT22;38173;52.850;6.970;2023-12-22T08:54:22;6.00;99.90
52203;DHT22;38173;52.850;6.970;2023-12-22T08:56:48;6.00;99.90
52203;DHT22;38173;52.850;6.970;2023-12-22T08:59:13;6.00;99.90
52203;DHT22;38173;52.850;6.970;2023-12-22T09:01:39;6.00;99.90
52203;DHT22;38173;52.850;6.970;2023-12-22T09:04:06;6.10;99.90
52203;DHT22;38173;52.850;6.970;2023-12-22T09:06:32;6.10;99.90
52203;DHT22;38173;52.850;6.970;2023-12-22T09:08:57;6.10;99.90
52203;DHT22;38173;52.850;6.970;2023-12-22T09:11:23;6.10;99.90
52203;DHT22;38173;52.850;6.970;2023-12-22T09:13:49;6.00;99.90
52203;DHT22;38173;52.850;6.970;2023-12-22T09:16:23;6.10;99.90
52203;DHT22;38173;52.850;6.970;2023-12-22T09:18:50;6.10;99.90
52203;DHT22;38173;52.850;6.970;2023-12-22T09:21:18;6.10;99.90
52203;DHT22;38173;52.850;6.970;2023-12-22T09:23:47;6.10;99.90
52203;DHT22;38173;52.850;6.970;2023-12-22T09:26:13;6.10;99.90
52203;DHT22;38173;52.850;6.970;2023-12-22T09:28:40;6.20;99.90
52203;DHT22;38173;52.850;6.970;2023-12-22T09:31:07;6.30;99.90
52203;DHT22;38173;52.850;6.970;2023-12-22T09:33:33;6.40;99.90
52203;DHT22;38173;52.850;6.970;2023-12-22T09:35:59;6.40;99.90
52203;DHT22;38173;52.850;6.970;2023-12-22T09:38:25;6.40;99.90
52203;DHT22;38173;52.850;6.970;2023-12-22T09:40:51;6.40;99.90
52203;DHT22;38173;52.850;6.970;2023-12-22T09:43:19;6.40;99.90
52203;DHT22;38173;52.850;6.970;2023-12-22T09:45:49;6.40;99.90
52203;DHT22;38173;52.850;6.970;2023-12-22T09:48:17;6.40;99.90
52203;DHT22;38173;52.850;6.970;2023-12-22T09:50:44;6.40;99.90
52203;DHT22;38173;52.850;6.970;2023-12-22T09:53:13;6.40;99.90
52203;DHT22;38173;52.850;6.970;2023-12-22T09:55:42;6.40;99.90
52203;DHT22;38173;52.850;6.970;2023-12-22T09:58:10;6.40;99.90
52203;DHT22;38173;52.850;6.970;2023-12-22T10:00:37;6.40;99.90
52203;DHT22;38173;52.850;6.970;2023-12-22T10:03:09;6.40;99.90
52203;DHT22;38173;52.850;6.970;2023-12-22T10:05:39;6.40;99.90
52203;DHT22;38173;52.850;6.970;2023-12-22T10:08:06;6.40;99.90
52203;DHT22;38173;52.850;6.970;2023-12-22T10:10:38;6.40;99.90
52203;DHT22;38173;52.850;6.970;2023-12-22T10:13:07;6.40;99.90
52203;DHT22;38173;52.850;6.970;2023-12-22T10:15:40;6.40;99.90
52203;DHT22;38173;52.850;6.970;2023-12-22T10:18:09;6.40;99.90
52203;DHT22;38173;52.850;6.970;2023-12-22T10:20:35;6.40;99.90
52203;DHT22;38173;52.850;6.970;2023-12-22T10:23:01;6.40;99.90
52203;DHT22;38173;52.850;6.970;2023-12-22T10:25:30;6.40;99.90
52203;DHT22;38173;52.850;6.970;2023-12-22T10:27:56;6.40;99.90
52203;DHT22;38173;52.850;6.970;2023-12-22T10:30:22;6.40;99.90
52203;DHT22;38173;52.850;6.970;2023-12-22T10:32:53;6.40;99.90
52203;DHT22;38173;52.850;6.970;2023-12-22T10:35:22;6.40;99.90
52203;DHT22;38173;52.850;6.970;2023-12-22T10:37:56;6.40;99.90
52203;DHT22;38173;52.850;6.970;2023-12-22T10:40:23;6.40;99.90
52203;DHT22;38173;52.850;6.970;2023-12-22T10:42:48;6.40;99.90
52203;DHT22;38173;52.850;6.970;2023-12-22T10:45:14;6.40;99.90
52203;DHT22;38173;52.850;6.970;2023-12-22T10:47:42;6.40;99.90
52203;DHT22;38173;52.850;6.970;2023-12-22T10:50:12;6.40;99.90
52203;DHT22;38173;52.850;6.970;2023-12-22T10:52:39;6.40;99.90
52203;DHT22;38173;52.850;6.970;2023-12-22T10:55:05;6.40;99.90
52203;DHT22;38173;52.850;6.970;2023-12-22T10:57:32;6.40;99.90
52203;DHT22;38173;52.850;6.970;2023-12-22T11:00:05;6.40;99.90
52203;DHT22;38173;52.850;6.970;2023-12-22T11:02:33;6.30;99.90
52203;DHT22;38173;52.850;6.970;2023-12-22T11:05:02;6.40;99.90
52203;DHT22;38173;52.850;6.970;2023-12-22T11:07:33;6.40;99.90
52203;DHT22;38173;52.850;6.970;2023-12-22T11:10:06;6.40;99.90
52203;DHT22;38173;52.850;6.970;2023-12-22T11:12:35;6.40;99.90
52203;DHT22;38173;52.850;6.970;2023-12-22T11:15:03;6.40;99.90
52203;DHT22;38173;52.850;6.970;2023-12-22T11:17:32;6.40;99.90
52203;DHT22;38173;52.850;6.970;2023-12-22T11:19:59;6.40;99.90
52203;DHT22;38173;52.850;6.970;2023-12-22T11:22:25;6.40;99.90
52203;DHT22;38173;52.850;6.970;2023-12-22T11:24:51;6.40;99.90
52203;DHT22;38173;52.850;6.970;2023-12-22T11:27:18;6.40;99.90
52203;DHT22;38173;52.850;6.970;2023-12-22T11:29:48;6.40;99.90
52203;DHT22;38173;52.850;6.970;2023-12-22T11:32:18;6.40;99.90
52203;DHT22;38173;52.850;6.970;2023-12-22T11:34:45;6.40;99.90
52203;DHT22;38173;52.850;6.970;2023-12-22T11:37:15;6.40;99.90
52203;DHT22;38173;52.850;6.970;2023-12-22T11:39:42;6.40;99.90
52203;DHT22;38173;52.850;6.970;2023-12-22T11:42:12;6.40;99.90
52203;DHT22;38173;52.850;6.970;2023-12-22T11:44:40;6.40;99.90
52203;DHT22;38173;52.850;6.970;2023-12-22T11:47:10;6.40;99.90
52203;DHT22;38173;52.850;6.970;2023-12-22T11:49:37;6.50;99.90
52203;DHT22;38173;52.850;6.970;2023-12-22T11:52:12;6.50;99.90
52203;DHT22;38173;52.850;6.970;2023-12-22T11:54:50;6.60;99.90
52203;DHT22;38173;52.850;6.970;2023-12-22T11:59:55;6.60;99.90
52203;DHT22;38173;52.850;6.970;2023-12-22T12:02:21;6.60;99.90
52203;DHT22;38173;52.850;6.970;2023-12-22T12:04:50;6.70;99.90
52203;DHT22;38173;52.850;6.970;2023-12-22T12:07:37;6.60;99.90
52203;DHT22;38173;52.850;6.970;2023-12-22T12:10:05;6.70;99.90
52203;DHT22;38173;52.850;6.970;2023-12-22T12:12:31;6.70;99.90
52203;DHT22;38173;52.850;6.970;2023-12-22T12:15:06;6.70;99.90
52203;DHT22;38173;52.850;6.970;2023-12-22T12:17:32;6.70;99.90
52203;DHT22;38173;52.850;6.970;2023-12-22T12:19:58;6.70;99.90
52203;DHT22;38173;52.850;6.970;2023-12-22T12:22:25;6.80;99.90
52203;DHT22;38173;52.850;6.970;2023-12-22T12:24:52;6.80;99.90
52203;DHT22;38173;52.850;6.970;2023-12-22T12:27:19;6.80;99.90
52203;DHT22;38173;52.850;6.970;2023-12-22T12:29:45;6.80;99.90
52203;DHT22;38173;52.850;6.970;2023-12-22T12:32:14;6.80;99.90
52203;DHT22;38173;52.850;6.970;2023-12-22T12:34:42;6.80;99.90
52203;DHT22;38173;52.850;6.970;2023-12-22T12:37:08;6.80;99.90
52203;DHT22;38173;52.850;6.970;2023-12-22T12:39:35;6.90;99.90
52203;DHT22;38173;52.850;6.970;2023-12-22T12:42:02;6.90;99.90
52203;DHT22;38173;52.850;6.970;2023-12-22T12:44:34;6.90;99.90
52203;DHT22;38173;52.850;6.970;2023-12-22T12:47:11;6.90;99.90
52203;DHT22;38173;52.850;6.970;2023-12-22T12:49:38;6.90;99.90
52203;DHT22;38173;52.850;6.970;2023-12-22T12:52:04;6.90;99.90
52203;DHT22;38173;52.850;6.970;2023-12-22T12:54:31;6.90;99.90
52203;DHT22;38173;52.850;6.970;2023-12-22T12:56:57;6.90;99.90
52203;DHT22;38173;52.850;6.970;2023-12-22T12:59:23;6.80;99.90
52203;DHT22;38173;52.850;6.970;2023-12-22T13:01:49;6.80;99.90
52203;DHT22;38173;52.850;6.970;2023-12-22T13:04:15;6.80;99.90
52203;DHT22;38173;52.850;6.970;2023-12-22T13:06:50;6.80;99.90
52203;DHT22;38173;52.850;6.970;2023-12-22T13:09:17;6.80;99.90
52203;DHT22;38173;52.850;6.970;2023-12-22T13:11:44;6.70;99.90
52203;DHT22;38173;52.850;6.970;2023-12-22T13:14:12;6.70;99.90
52203;DHT22;38173;52.850;6.970;2023-12-22T13:16:39;6.70;99.90
52203;DHT22;38173;52.850;6.970;2023-12-22T13:19:05;6.70;99.90
52203;DHT22;38173;52.850;6.970;2023-12-22T13:21:31;6.70;99.90
52203;DHT22;38173;52.850;6.970;2023-12-22T13:24:26;6.70;99.90
52203;DHT22;38173;52.850;6.970;2023-12-22T13:27:01;6.70;99.90
52203;DHT22;38173;52.850;6.970;2023-12-22T13:29:27;6.70;99.90
52203;DHT22;38173;52.850;6.970;2023-12-22T13:31:54;6.70;99.90
52203;DHT22;38173;52.850;6.970;2023-12-22T13:34:20;6.70;99.90
52203;DHT22;38173;52.850;6.970;2023-12-22T13:36:46;6.70;99.90
52203;DHT22;38173;52.850;6.970;2023-12-22T13:39:12;6.70;99.90
52203;DHT22;38173;52.850;6.970;2023-12-22T13:41:38;6.60;99.90
52203;DHT22;38173;52.850;6.970;2023-12-22T13:44:14;6.60;99.90
52203;DHT22;38173;52.850;6.970;2023-12-22T13:46:40;6.60;99.90
52203;DHT22;38173;52.850;6.970;2023-12-22T13:49:10;6.60;99.90
52203;DHT22;38173;52.850;6.970;2023-12-22T13:51:45;6.60;99.90
52203;DHT22;38173;52.850;6.970;2023-12-22T13:54:13;6.60;99.90
52203;DHT22;38173;52.850;6.970;2023-12-22T13:56:39;6.60;99.90
52203;DHT22;38173;52.850;6.970;2023-12-22T13:59:10;6.60;99.90
52203;DHT22;38173;52.850;6.970;2023-12-22T14:01:36;6.60;99.90
52203;DHT22;38173;52.850;6.970;2023-12-22T14:04:02;6.60;99.90
52203;DHT22;38173;52.850;6.970;2023-12-22T14:06:28;6.60;99.90
52203;DHT22;38173;52.850;6.970;2023-12-22T14:08:55;6.50;99.90
52203;DHT22;38173;52.850;6.970;2023-12-22T14:11:21;6.50;99.90
52203;DHT22;38173;52.850;6.970;2023-12-22T14:13:46;6.50;99.90
52203;DHT22;38173;52.850;6.970;2023-12-22T14:16:12;6.50;99.90
52203;DHT22;38173;52.850;6.970;2023-12-22T14:18:38;6.50;99.90
52203;DHT22;38173;52.850;6.970;2023-12-22T14:21:04;6.50;99.90
52203;DHT22;38173;52.850;6.970;2023-12-22T14:23:31;6.50;99.90
52203;DHT22;38173;52.850;6.970;2023-12-22T14:25:57;6.50;99.90
52203;DHT22;38173;52.850;6.970;2023-12-22T14:28:23;6.50;99.90
52203;DHT22;38173;52.850;6.970;2023-12-22T14:30:49;6.50;99.90
52203;DHT22;38173;52.850;6.970;2023-12-22T14:33:15;6.50;99.90
52203;DHT22;38173;52.850;6.970;2023-12-22T14:35:41;6.50;99.90
52203;DHT22;38173;52.850;6.970;2023-12-22T14:38:07;6.50;99.90
52203;DHT22;38173;52.850;6.970;2023-12-22T14:40:32;6.60;99.90
52203;DHT22;38173;52.850;6.970;2023-12-22T14:42:58;6.60;99.90
52203;DHT22;38173;52.850;6.970;2023-12-22T14:45:24;6.60;99.90
52203;DHT22;38173;52.850;6.970;2023-12-22T14:47:50;6.50;99.90
52203;DHT22;38173;52.850;6.970;2023-12-22T14:50:17;6.50;99.90
52203;DHT22;38173;52.850;6.970;2023-12-22T14:52:43;6.50;99.90
52203;DHT22;38173;52.850;6.970;2023-12-22T14:55:10;6.50;99.90
52203;DHT22;38173;52.850;6.970;2023-12-22T14:57:36;6.50;99.90
52203;DHT22;38173;52.850;6.970;2023-12-22T15:00:02;6.50;99.90
52203;DHT22;38173;52.850;6.970;2023-12-22T15:02:28;6.50;99.90
52203;DHT22;38173;52.850;6.970;2023-12-22T15:04:54;6.50;99.90
52203;DHT22;38173;52.850;6.970;2023-12-22T15:07:20;6.50;99.90
52203;DHT22;38173;52.850;6.970;2023-12-22T15:09:46;6.40;99.90
52203;DHT22;38173;52.850;6.970;2023-12-22T15:12:14;6.50;99.90
52203;DHT22;38173;52.850;6.970;2023-12-22T15:14:47;6.50;99.90
52203;DHT22;38173;52.850;6.970;2023-12-22T15:17:13;6.50;99.90
52203;DHT22;38173;52.850;6.970;2023-12-22T15:19:43;6.50;99.90
52203;DHT22;38173;52.850;6.970;2023-12-22T15:22:10;6.50;99.90
52203;DHT22;38173;52.850;6.970;2023-12-22T15:24:37;6.50;99.90
52203;DHT22;38173;52.850;6.970;2023-12-22T15:27:06;6.50;99.90
52203;DHT22;38173;52.850;6.970;2023-12-22T15:29:33;6.50;99.90
52203;DHT22;38173;52.850;6.970;2023-12-22T15:31:58;6.50;99.90
52203;DHT22;38173;52.850;6.970;2023-12-22T15:34:26;6.50;99.90
52203;DHT22;38173;52.850;6.970;2023-12-22T15:36:51;6.50;99.90
52203;DHT22;38173;52.850;6.970;2023-12-22T15:39:17;6.50;99.90
52203;DHT22;38173;52.850;6.970;2023-12-22T15:41:43;6.50;99.90
52203;DHT22;38173;52.850;6.970;2023-12-22T15:44:08;6.50;99.90
52203;DHT22;38173;52.850;6.970;2023-12-22T15:46:34;6.50;99.90